메인 페이지
METAR-TAF:

METAR-TAF

공항 :

마데이라 공항

푼샬, 마데이라 제도, 포르투갈

위도: 32-41-52N, 경도: 016-46-28W, 고도: 59m

현재 날씨관측

예보는 36분 전, 18:00시(UTC)에 발표되었습니다.
남남서13kt
온도 17°C
습도 59%
기압 1019 hPa
시정 10km 이상
고도 1600ft 상공 구름 조금
고도 3000ft 상공 구름 보통

METAR: LPMA 201800Z 21013KT 9999 FEW016 SCT030 17/09 Q1019

시각: 18:36 (18:36 UTC)

예보

예보는 1 시간 36분 전, 17:00시(UTC)에 발표되었습니다.
예보 대상 시간: 20일 18시부터 21일 18시까지 (UTC)
남남서15kt
시정 10km 이상
고도 1500ft 상공 구름 조금
고도 3000ft 상공 구름 많음
일시적
20일 18시부터 21일 18시까지 (UTC)
고도 1500ft 상공 구름 보통
확률 30% :
일시적
20일 18시부터 21일 18시까지 (UTC)
남남서17kt, 순간 최대 풍속 30kt

TAF: LPMA 201700Z 2018/2118 21015KT 9999 FEW015 BKN030 TEMPO 2018/2118 SCT015 PROB30 TEMPO 2018/2118 21017G30KT

4,000개 이상의 공항 관측 자료 및 예보 (METAR 및 TAF 보고).

지도상에서 검색 가능한 기상관측소가 노란 점과 빨간 점으로 표시되어 있습니다.

기상관측소 명을 보려면 표시 위로 마우스를 이동하세요.

날씨 관측과 예보를 보려면 클릭하세요.

지도 변경 : 확대하려면 엑스 표시가 있는 녹색 버튼, 축소하려면 빼기 표시가 있는 녹색 버튼, 다음 페이지의 지도를 보려면 녹색 화살표를 클릭하세요.


METAR-TAF: